createdAt,value
2023-01-19T00:02:19.669Z,8.70
2023-01-19T00:04:52.272Z,13.50
2023-01-19T00:07:19.685Z,12.10
2023-01-19T00:09:46.746Z,12.98
2023-01-19T00:12:13.722Z,11.50
2023-01-19T00:14:40.765Z,12.30
2023-01-19T00:17:07.859Z,14.98
2023-01-19T00:19:34.976Z,10.85
2023-01-19T00:22:01.984Z,8.88
2023-01-19T00:24:29.112Z,9.30
2023-01-19T00:26:56.959Z,14.20
2023-01-19T00:29:24.233Z,13.45
2023-01-19T00:31:51.412Z,12.90
2023-01-19T00:34:18.687Z,9.35
2023-01-19T00:36:45.793Z,11.63
2023-01-19T00:39:12.917Z,10.80
2023-01-19T00:41:58.750Z,10.23
2023-01-19T00:44:25.803Z,11.85
2023-01-19T00:46:52.773Z,12.13
2023-01-19T00:49:19.923Z,10.75
2023-01-19T00:51:47.257Z,9.52
2023-01-19T00:54:14.776Z,10.50
2023-01-19T00:56:41.897Z,9.10
2023-01-19T00:59:09.061Z,9.25
2023-01-19T01:01:45.472Z,13.15
2023-01-19T01:04:14.454Z,14.80
2023-01-19T01:06:41.527Z,8.50
2023-01-19T01:09:12.174Z,12.13
2023-01-19T01:11:40.577Z,9.93
2023-01-19T01:14:08.631Z,10.38
2023-01-19T01:16:35.982Z,12.63
2023-01-19T01:19:03.029Z,11.20
2023-01-19T01:21:30.227Z,12.15
2023-01-19T01:23:57.275Z,13.18
2023-01-19T01:26:26.387Z,11.70
2023-01-19T01:28:54.164Z,14.05
2023-01-19T01:31:21.301Z,12.18
2023-01-19T01:33:48.514Z,9.38
2023-01-19T01:36:15.910Z,13.18
2023-01-19T01:38:43.055Z,14.10
2023-01-19T01:41:11.040Z,8.85
2023-01-19T01:43:48.689Z,15.80
2023-01-19T01:46:17.472Z,13.98
2023-01-19T01:48:52.014Z,10.23
2023-01-19T01:51:25.631Z,10.75
2023-01-19T01:54:18.135Z,12.48
2023-01-19T01:56:51.585Z,9.25
2023-01-19T01:59:30.071Z,10.98
2023-01-19T02:02:19.154Z,16.20
2023-01-19T02:04:50.603Z,12.07
2023-01-19T02:07:45.589Z,13.30
2023-01-19T02:10:30.997Z,14.07
2023-01-19T02:13:16.980Z,15.15
2023-01-19T02:15:44.982Z,15.98
2023-01-19T02:18:12.262Z,13.75
2023-01-19T02:20:43.567Z,9.35
2023-01-19T02:23:17.554Z,14.68
2023-01-19T02:25:44.738Z,11.05
2023-01-19T02:28:12.180Z,14.10
2023-01-19T02:30:41.284Z,9.55
2023-01-19T02:33:08.631Z,11.98
2023-01-19T02:35:38.790Z,10.82
2023-01-19T02:38:10.607Z,10.20
2023-01-19T02:51:17.424Z,11.43
2023-01-19T02:54:12.476Z,12.45
2023-01-19T02:56:42.275Z,14.40
2023-01-19T02:59:24.776Z,12.07
2023-01-19T03:01:57.821Z,17.98
2023-01-19T03:04:47.680Z,13.13
2023-01-19T03:07:31.089Z,17.45
2023-01-19T03:10:21.617Z,11.18
2023-01-19T03:13:15.042Z,11.90
2023-01-19T03:19:40.771Z,14.45
2023-01-19T03:22:28.551Z,14.70
2023-01-19T03:25:12.578Z,14.60
2023-01-19T03:34:45.716Z,12.18
2023-01-19T03:37:32.592Z,8.55
2023-01-19T03:40:09.104Z,8.98
2023-01-19T03:42:38.386Z,11.45
2023-01-19T03:45:06.317Z,11.70
2023-01-19T03:47:34.422Z,10.43
2023-01-19T03:50:06.440Z,9.82
2023-01-19T03:52:36.527Z,11.18
2023-01-19T03:55:05.574Z,10.82
2023-01-19T03:57:32.843Z,8.30
2023-01-19T04:00:00.032Z,8.95
2023-01-19T04:02:27.447Z,11.60
2023-01-19T04:04:55.912Z,8.20
2023-01-19T04:07:22.939Z,12.93
2023-01-19T04:09:50.187Z,10.18
2023-01-19T04:12:17.181Z,12.95
2023-01-19T04:14:44.268Z,15.25
2023-01-19T04:17:12.067Z,14.45
2023-01-19T04:19:39.140Z,12.82
2023-01-19T04:22:06.630Z,10.68
2023-01-19T04:24:33.517Z,9.07
2023-01-19T04:27:00.886Z,14.30
2023-01-19T04:29:27.989Z,11.52
2023-01-19T04:31:54.923Z,10.77
2023-01-19T04:34:22.001Z,11.13
2023-01-19T04:36:51.426Z,9.30
2023-01-19T04:39:18.415Z,10.07
2023-01-19T04:44:57.342Z,9.55
2023-01-19T04:47:24.493Z,11.52
2023-01-19T04:53:05.483Z,13.75
2023-01-19T04:56:15.960Z,10.40
2023-01-19T04:58:46.230Z,14.02
2023-01-19T05:01:13.457Z,12.77
2023-01-19T05:03:40.905Z,10.40
2023-01-19T05:06:08.110Z,15.48
2023-01-19T05:08:35.183Z,12.68
2023-01-19T05:11:02.629Z,11.38
2023-01-19T05:13:29.771Z,13.48
2023-01-19T05:15:57.058Z,8.45
2023-01-19T05:18:24.462Z,10.23
2023-01-19T05:23:32.915Z,10.10
2023-01-19T05:26:02.175Z,13.52
2023-01-19T05:28:30.680Z,10.43
2023-01-19T05:30:57.916Z,10.75
2023-01-19T05:33:25.437Z,12.40
2023-01-19T05:35:53.484Z,13.38
2023-01-19T05:38:34.300Z,12.50
2023-01-19T05:41:02.591Z,11.52
2023-01-19T05:43:29.771Z,12.10
2023-01-19T05:45:57.022Z,10.70
2023-01-19T05:48:24.099Z,10.85
2023-01-19T05:50:51.643Z,12.50
2023-01-19T05:53:18.787Z,10.50
2023-01-19T05:55:46.034Z,15.50
2023-01-19T05:58:13.120Z,14.00
2023-01-19T06:00:50.495Z,13.52
2023-01-19T06:03:52.207Z,11.15
2023-01-19T06:09:32.101Z,10.98
2023-01-19T06:11:59.928Z,10.80
2023-01-19T06:20:19.015Z,12.27
2023-01-19T06:25:55.778Z,15.68
2023-01-19T06:28:23.823Z,12.68
2023-01-19T06:30:52.362Z,15.77
2023-01-19T06:33:20.176Z,10.73
2023-01-19T06:35:49.033Z,16.25
2023-01-19T06:38:19.895Z,12.18
2023-01-19T06:40:54.338Z,13.32
2023-01-19T06:43:22.253Z,12.85
2023-01-19T06:45:50.339Z,13.18
2023-01-19T06:48:18.376Z,16.50
2023-01-19T06:50:51.172Z,10.75
2023-01-19T06:53:32.009Z,12.15
2023-01-19T06:56:18.811Z,15.63
2023-01-19T06:59:57.951Z,13.82
2023-01-19T07:09:00.754Z,15.45
2023-01-19T07:12:12.374Z,16.67
2023-01-19T07:14:39.352Z,21.10
2023-01-19T07:17:06.568Z,16.00
2023-01-19T07:19:35.071Z,21.80
2023-01-19T07:22:03.311Z,20.52
2023-01-19T07:24:38.161Z,19.83
2023-01-19T07:27:05.654Z,21.45
2023-01-19T07:29:32.747Z,20.98
2023-01-19T07:32:00.011Z,16.05
2023-01-19T07:34:27.249Z,20.52
2023-01-19T07:36:56.190Z,20.50
2023-01-19T07:39:23.522Z,21.15
2023-01-19T07:41:50.770Z,14.88
2023-01-19T07:44:18.048Z,16.50
2023-01-19T07:46:45.083Z,16.25
2023-01-19T07:49:12.817Z,13.10
2023-01-19T07:51:39.862Z,13.55
2023-01-19T07:54:08.631Z,13.07
2023-01-19T07:56:50.017Z,13.30
2023-01-19T08:02:30.919Z,16.13
2023-01-19T08:05:08.816Z,12.52
2023-01-19T08:13:35.625Z,18.77
2023-01-19T08:16:02.829Z,22.15
2023-01-19T08:21:39.742Z,20.27
2023-01-19T08:24:07.663Z,17.02
2023-01-19T08:26:44.700Z,21.77
2023-01-19T08:32:44.536Z,17.95
2023-01-19T08:35:26.429Z,19.30
2023-01-19T08:37:54.275Z,15.90
2023-01-19T08:40:28.816Z,16.65
2023-01-19T08:43:11.319Z,13.38
2023-01-19T08:45:48.281Z,13.50
2023-01-19T08:48:17.865Z,19.25
2023-01-19T08:50:49.181Z,23.60
2023-01-19T08:53:17.158Z,23.88
2023-01-19T08:55:44.257Z,21.33
2023-01-19T08:58:11.278Z,25.90
2023-01-19T09:00:39.804Z,16.35
2023-01-19T09:03:10.017Z,22.95
2023-01-19T09:05:39.046Z,14.20
2023-01-19T09:08:11.986Z,24.20
2023-01-19T09:10:40.451Z,12.63
2023-01-19T09:13:11.158Z,14.82
2023-01-19T09:15:42.476Z,16.10
2023-01-19T09:18:13.745Z,9.90
2023-01-19T09:20:42.889Z,23.73
2023-01-19T09:23:11.608Z,14.32
2023-01-19T09:25:39.759Z,14.05
2023-01-19T09:28:09.341Z,16.73
2023-01-19T09:30:37.942Z,17.48
2023-01-19T09:33:07.604Z,27.00
2023-01-19T09:35:35.198Z,16.60
2023-01-19T09:38:02.644Z,24.70
2023-01-19T09:40:30.424Z,24.48
2023-01-19T09:43:12.471Z,24.42
2023-01-19T09:45:59.329Z,15.80
2023-01-19T09:48:26.264Z,24.52
2023-01-19T09:50:56.776Z,22.80
2023-01-19T09:53:52.368Z,23.50
2023-01-19T09:56:20.710Z,19.83
2023-01-19T09:58:49.574Z,22.52
2023-01-19T10:01:55.273Z,12.85
2023-01-19T10:04:34.267Z,17.98
2023-01-19T10:07:10.433Z,20.95
2023-01-19T10:09:51.741Z,17.17
2023-01-19T10:12:44.554Z,16.90
2023-01-19T10:15:33.355Z,17.98
2023-01-19T10:18:20.706Z,21.95
2023-01-19T10:20:56.798Z,25.48
2023-01-19T10:23:36.454Z,17.50
2023-01-19T10:26:12.180Z,13.03
2023-01-19T10:28:40.928Z,18.02
2023-01-19T10:31:09.925Z,24.85
2023-01-19T10:33:38.732Z,18.13
2023-01-19T10:36:15.583Z,21.92
2023-01-19T10:38:42.692Z,24.88
2023-01-19T10:41:30.580Z,24.10
2023-01-19T10:44:02.915Z,25.20
2023-01-19T10:46:38.810Z,13.32
2023-01-19T10:49:06.973Z,17.02
2023-01-19T10:51:34.198Z,20.58
2023-01-19T10:54:04.551Z,21.42
2023-01-19T10:59:02.181Z,24.55
2023-01-19T11:01:31.327Z,14.23
2023-01-19T11:04:05.857Z,25.33
2023-01-19T11:06:34.624Z,15.40
2023-01-19T11:09:20.181Z,15.68
2023-01-19T11:11:53.199Z,17.90
2023-01-19T11:14:23.358Z,18.63
2023-01-19T11:16:55.066Z,14.60
2023-01-19T11:19:30.332Z,23.38
2023-01-19T11:22:24.941Z,15.25
2023-01-19T11:24:52.349Z,18.10
2023-01-19T11:27:21.388Z,14.98
2023-01-19T11:30:05.382Z,21.70
2023-01-19T11:32:35.841Z,18.40
2023-01-19T11:35:28.941Z,11.90
2023-01-19T11:38:27.407Z,14.68
2023-01-19T11:40:59.297Z,15.13
2023-01-19T11:43:43.583Z,23.05
2023-01-19T11:46:16.592Z,22.98
2023-01-19T11:48:56.801Z,22.35
2023-01-19T11:51:28.759Z,23.52
2023-01-19T11:53:55.860Z,15.40
2023-01-19T11:56:33.519Z,12.40
2023-01-19T11:59:14.165Z,24.20
2023-01-19T12:01:55.029Z,23.27
2023-01-19T12:04:41.349Z,22.45
2023-01-19T12:07:12.970Z,17.35
2023-01-19T12:09:48.831Z,20.85
2023-01-19T12:12:33.401Z,21.67
2023-01-19T12:15:03.538Z,24.08
2023-01-19T12:20:15.143Z,21.05
2023-01-19T12:22:50.944Z,14.10
2023-01-19T12:25:43.291Z,22.60
2023-01-19T12:28:14.574Z,19.00
2023-01-19T12:33:31.596Z,17.35
2023-01-19T12:36:07.316Z,19.42
2023-01-19T12:38:52.968Z,18.20
2023-01-19T12:41:33.655Z,21.70
2023-01-19T12:44:09.944Z,19.55
2023-01-19T12:47:13.094Z,22.05
2023-01-19T12:49:44.510Z,18.33
2023-01-19T12:52:31.014Z,18.20
2023-01-19T12:55:13.249Z,23.40
2023-01-19T12:57:46.847Z,13.23
2023-01-19T13:00:23.240Z,24.92
2023-01-19T13:02:55.053Z,15.45
2023-01-19T13:05:42.111Z,21.30
2023-01-19T13:08:09.182Z,13.98
2023-01-19T13:11:02.373Z,21.17
2023-01-19T13:13:30.781Z,18.40
2023-01-19T13:19:22.333Z,19.40
2023-01-19T13:21:49.791Z,15.25
2023-01-19T13:24:22.603Z,21.65
2023-01-19T13:26:49.827Z,18.55
2023-01-19T13:29:40.525Z,24.20
2023-01-19T13:32:18.933Z,15.80
2023-01-19T13:34:52.418Z,14.15
2023-01-19T13:37:23.215Z,13.95
2023-01-19T13:39:53.999Z,13.40
2023-01-19T13:42:35.733Z,17.77
2023-01-19T13:45:17.442Z,18.75
2023-01-19T13:47:47.359Z,21.58
2023-01-19T13:50:22.686Z,15.55
2023-01-19T13:52:51.557Z,21.75
2023-01-19T13:55:20.677Z,20.33
2023-01-19T13:57:49.710Z,17.08
2023-01-19T14:00:18.407Z,14.55
2023-01-19T14:03:11.793Z,21.48
2023-01-19T14:05:43.604Z,17.00
2023-01-19T14:08:13.637Z,23.40
2023-01-19T14:11:02.448Z,22.55
2023-01-19T14:13:43.379Z,19.13
2023-01-19T14:16:17.850Z,16.77
2023-01-19T14:18:45.042Z,16.10
2023-01-19T14:21:14.735Z,19.17
2023-01-19T14:24:19.083Z,17.33
2023-01-19T14:26:51.461Z,11.93
2023-01-19T14:29:32.596Z,14.48
2023-01-19T14:32:16.643Z,11.80
2023-01-19T14:35:04.760Z,21.75
2023-01-19T14:37:35.495Z,14.10
2023-01-19T14:42:39.278Z,19.15
2023-01-19T14:45:16.261Z,13.02
2023-01-19T14:47:45.076Z,17.48
2023-01-19T14:50:23.648Z,18.27
2023-01-19T14:53:01.060Z,19.25
2023-01-19T14:55:56.994Z,18.33
2023-01-19T14:58:26.891Z,14.25
2023-01-19T15:00:56.853Z,20.05
2023-01-19T15:09:50.157Z,18.08
2023-01-19T15:12:20.868Z,17.63
2023-01-19T15:14:47.992Z,19.15
2023-01-19T15:17:25.807Z,20.00
2023-01-19T15:19:54.551Z,14.93
2023-01-19T15:22:22.859Z,12.57
2023-01-19T15:24:50.124Z,10.88
2023-01-19T15:27:17.617Z,12.05
2023-01-19T15:29:57.984Z,11.32
2023-01-19T15:39:07.366Z,19.15
2023-01-19T15:48:45.752Z,16.98
2023-01-19T15:51:18.325Z,11.18
2023-01-19T15:53:46.665Z,20.23
2023-01-19T15:56:25.698Z,15.10
2023-01-19T15:58:53.982Z,12.27
2023-01-19T16:01:32.220Z,18.60
2023-01-19T16:04:01.557Z,21.50
2023-01-19T16:06:30.891Z,17.83
2023-01-19T16:09:03.991Z,17.38
2023-01-19T16:11:35.234Z,20.48
2023-01-19T16:30:09.400Z,17.02
2023-01-19T16:32:42.922Z,19.10
2023-01-19T16:38:45.372Z,23.55
2023-01-19T16:41:28.628Z,22.42
2023-01-19T16:43:58.422Z,11.65
2023-01-19T16:46:28.141Z,16.45
2023-01-19T16:49:00.844Z,19.80
2023-01-19T16:51:28.113Z,11.73
2023-01-19T16:53:55.580Z,17.65
2023-01-19T16:56:22.635Z,20.42
2023-01-19T16:58:57.888Z,19.15
2023-01-19T17:01:26.994Z,21.15
2023-01-19T17:04:00.197Z,24.10
2023-01-19T17:06:28.431Z,24.17
2023-01-19T17:08:55.729Z,21.25
2023-01-19T17:11:32.887Z,26.23
2023-01-19T17:14:04.198Z,15.40
2023-01-19T17:16:33.868Z,28.42
2023-01-19T17:19:02.603Z,20.90
2023-01-19T17:21:30.255Z,21.40
2023-01-19T17:23:58.300Z,25.98
2023-01-19T17:26:28.392Z,26.80
2023-01-19T17:29:00.729Z,27.00
2023-01-19T17:31:28.484Z,21.02
2023-01-19T17:33:55.911Z,30.45
2023-01-19T17:36:25.452Z,27.92
2023-01-19T17:38:57.671Z,29.55
2023-01-19T17:41:30.309Z,20.50
2023-01-19T17:44:00.681Z,30.05
2023-01-19T17:48:58.161Z,18.48
2023-01-19T17:51:26.773Z,31.90
2023-01-19T17:53:55.189Z,15.90
2023-01-19T17:56:29.889Z,17.60
2023-01-19T17:58:58.239Z,25.60
2023-01-19T18:01:27.876Z,18.55
2023-01-19T18:03:55.507Z,29.73
2023-01-19T18:06:22.869Z,20.15
2023-01-19T18:08:50.119Z,32.10
2023-01-19T18:11:19.358Z,21.25
2023-01-19T18:13:48.510Z,24.08
2023-01-19T18:16:18.742Z,19.80
2023-01-19T18:18:45.957Z,30.33
2023-01-19T18:21:14.984Z,28.17
2023-01-19T18:23:43.554Z,27.80
2023-01-19T18:26:14.255Z,19.17
2023-01-19T18:28:41.276Z,29.80
2023-01-19T18:31:10.938Z,27.88
2023-01-19T18:33:39.089Z,28.98
2023-01-19T18:36:06.649Z,32.97
2023-01-19T18:38:35.406Z,29.80
2023-01-19T18:41:14.271Z,29.00
2023-01-19T18:43:41.383Z,29.75
2023-01-19T18:46:08.889Z,28.67
2023-01-19T18:48:37.506Z,19.40
2023-01-19T18:51:09.836Z,28.98
2023-01-19T18:53:37.347Z,32.58
2023-01-19T18:56:05.395Z,30.63
2023-01-19T18:58:33.685Z,25.70
2023-01-19T19:01:01.476Z,24.27
2023-01-19T19:03:29.280Z,30.73
2023-01-19T19:05:56.761Z,31.35
2023-01-19T19:08:23.917Z,29.08
2023-01-19T19:10:51.338Z,17.80
2023-01-19T19:13:21.821Z,25.42
2023-01-19T19:18:16.475Z,16.52
2023-01-19T19:20:43.904Z,29.88
2023-01-19T19:23:11.945Z,28.75
2023-01-19T19:25:39.268Z,21.08
2023-01-19T19:28:07.270Z,19.83
2023-01-19T19:30:37.911Z,20.92
2023-01-19T19:33:05.264Z,31.35
2023-01-19T19:35:32.445Z,15.38
2023-01-19T19:38:02.916Z,31.95
2023-01-19T19:40:30.345Z,26.65
2023-01-19T19:42:58.850Z,33.38
2023-01-19T19:45:26.557Z,31.60
2023-01-19T19:47:53.607Z,31.67
2023-01-19T19:50:20.556Z,26.75
2023-01-19T19:52:47.724Z,32.70
2023-01-19T19:55:15.087Z,22.58
2023-01-19T19:57:42.272Z,22.75
2023-01-19T20:00:10.178Z,31.15
2023-01-19T20:02:37.581Z,32.50
2023-01-19T20:05:05.291Z,23.23
2023-01-19T20:07:33.040Z,32.75
2023-01-19T20:10:00.326Z,34.45
2023-01-19T20:12:27.647Z,25.20
2023-01-19T20:14:54.652Z,32.00
2023-01-19T20:17:23.313Z,24.77
2023-01-19T20:19:51.111Z,31.50
2023-01-19T20:22:18.557Z,30.63
2023-01-19T20:24:46.157Z,32.60
2023-01-19T20:27:13.175Z,31.95
2023-01-19T20:29:40.197Z,32.63
2023-01-19T20:32:08.048Z,20.48
2023-01-19T20:34:36.048Z,30.70
2023-01-19T20:37:05.279Z,27.38
2023-01-19T20:39:34.678Z,18.92
2023-01-19T20:42:02.236Z,20.65
2023-01-19T20:44:29.364Z,19.90
2023-01-19T20:49:51.437Z,21.95
2023-01-19T20:52:18.607Z,16.63
2023-01-19T20:54:45.724Z,30.23
2023-01-19T20:57:13.144Z,29.15
2023-01-19T20:59:41.101Z,20.80
2023-01-19T21:02:14.370Z,29.88
2023-01-19T21:04:41.716Z,31.23
2023-01-19T21:07:09.262Z,28.83
2023-01-19T21:09:37.805Z,18.67
2023-01-19T21:12:05.335Z,18.50
2023-01-19T21:14:32.818Z,24.27
2023-01-19T21:16:59.850Z,23.95
2023-01-19T21:19:26.906Z,19.75
2023-01-19T21:21:55.461Z,27.38
2023-01-19T21:24:22.645Z,28.38
2023-01-19T21:26:50.049Z,26.23
2023-01-19T21:29:17.057Z,22.23
2023-01-19T21:31:44.126Z,23.23
2023-01-19T21:34:11.928Z,21.55
2023-01-19T21:36:39.265Z,25.92
2023-01-19T21:39:09.668Z,17.13
2023-01-19T21:41:39.889Z,19.02
2023-01-19T21:44:07.067Z,26.73
2023-01-19T21:46:34.228Z,21.30
2023-01-19T21:49:04.951Z,24.25
2023-01-19T21:51:36.737Z,25.83
2023-01-19T21:54:06.044Z,27.08
2023-01-19T21:56:33.841Z,21.13
2023-01-19T21:59:04.515Z,19.02
2023-01-19T22:01:33.054Z,29.90
2023-01-19T22:04:00.548Z,33.05
2023-01-19T22:06:28.305Z,20.00
2023-01-19T22:08:58.489Z,28.33
2023-01-19T22:11:25.697Z,21.38
2023-01-19T22:13:53.635Z,27.67
2023-01-19T22:16:22.915Z,28.83
2023-01-19T22:18:54.066Z,27.85
2023-01-19T22:21:23.701Z,18.20
2023-01-19T22:23:56.226Z,21.73
2023-01-19T22:26:23.736Z,20.13
2023-01-19T22:28:54.437Z,23.55
2023-01-19T22:31:22.774Z,20.25
2023-01-19T22:33:51.033Z,26.60
2023-01-19T22:36:22.338Z,24.17
2023-01-19T22:38:52.103Z,16.92
2023-01-19T22:41:21.942Z,26.95
2023-01-19T22:43:50.623Z,18.17
2023-01-19T22:46:19.693Z,24.20
2023-01-19T22:48:48.505Z,19.42
2023-01-19T22:51:16.534Z,14.88
2023-01-19T22:53:43.681Z,22.50
2023-01-19T22:56:21.985Z,18.13
2023-01-19T22:58:49.595Z,18.33
2023-01-19T23:01:22.745Z,25.05
2023-01-19T23:03:50.493Z,15.27
2023-01-19T23:06:19.936Z,17.02
2023-01-19T23:08:47.493Z,18.63
2023-01-19T23:11:23.313Z,16.42
2023-01-19T23:13:51.214Z,23.23
2023-01-19T23:16:18.600Z,20.98
2023-01-19T23:18:46.670Z,17.13
2023-01-19T23:21:17.235Z,17.55
2023-01-19T23:23:45.334Z,19.55
2023-01-19T23:26:18.464Z,14.75
2023-01-19T23:28:46.679Z,20.67
2023-01-19T23:31:24.340Z,25.05
2023-01-19T23:33:54.005Z,22.98
2023-01-19T23:36:22.869Z,25.98
2023-01-19T23:39:01.678Z,21.70
2023-01-19T23:41:31.401Z,20.95
2023-01-19T23:43:58.765Z,18.75
2023-01-19T23:46:25.935Z,14.77
2023-01-19T23:48:53.377Z,19.60
2023-01-19T23:51:21.841Z,22.50
2023-01-19T23:53:49.770Z,25.13
2023-01-19T23:56:28.378Z,23.13
2023-01-19T23:59:00.455Z,19.70
